Time;durP1;ratioP1;P1;durP2;ratioP2;P2;SDS_P1;SDS_P2;PMS_P1;PMS_P2;Temp;Humidity;BMP_temperature;BMP_pressure;BME280_temperature;BME280_humidity;BME280_pressure;Samples;Min_cycle;Max_cycle;Signal;HPM_P1;HPM_P2
2022/01/16 00:00:40;;;;;;;;;;;;;;;0.04;100.00;102411.84;5104808;28;19995;-77
2022/01/16 00:05:55;;;;;;;;;;;;;;;0.08;100.00;102446.81;5107284;28;19968;-76
2022/01/16 00:08:21;;;;;;;;;;;;;;;0.11;100.00;102434.44;5098354;28;20023;-77
2022/01/16 00:10:46;;;;;;;;;;;;;;;0.09;100.00;102438.47;5107188;28;20404;-77
2022/01/16 00:13:12;;;;;;;;;;;;;;;0.10;100.00;102435.19;5092904;28;19920;-77
2022/01/16 00:15:37;;;;;;;;;;;;;;;0.18;100.00;102426.69;5106385;28;19916;-76
2022/01/16 00:20:27;;;;;;;;;;;;;;;0.10;100.00;102440.25;5107016;28;19920;-76
2022/01/16 00:22:53;;;;;;;;;;;;;;;0.03;100.00;102428.66;5089664;28;20391;-77
2022/01/16 00:25:19;;;;;;;;;;;;;;;0.07;100.00;102438.34;5094489;28;20376;-76
2022/01/16 00:27:44;;;;;;;;;;;;;;;0.07;100.00;102424.81;5108215;28;19919;-76
2022/01/16 00:30:09;;;;;;;;;;;;;;;0.23;100.00;102420.44;5107788;28;19923;-76
2022/01/16 00:32:35;;;;;;;;;;;;;;;0.18;100.00;102417.50;5095707;28;20630;-76
2022/01/16 00:35:00;;;;;;;;;;;;;;;0.09;100.00;102423.31;5106502;28;19967;-77
2022/01/16 00:37:26;;;;;;;;;;;;;;;0.16;100.00;102430.72;5106114;28;19920;-76
2022/01/16 00:39:51;;;;;;;;;;;;;;;0.09;100.00;102429.25;5097420;28;20024;-76
2022/01/16 00:42:16;;;;;;;;;;;;;;;0.10;100.00;102432.66;5081327;28;19927;-76
2022/01/16 00:44:41;;;;;;;;;;;;;;;0.03;100.00;102433.72;5074802;28;19920;-76
2022/01/16 00:47:07;;;;;;;;;;;;;;;0.05;100.00;102431.34;5092139;28;19939;-76
2022/01/16 00:49:34;;;;;;;;;;;;;;;0.14;100.00;102423.00;5105271;28;20445;-76
2022/01/16 00:52:00;;;;;;;;;;;;;;;0.10;100.00;102428.50;5093175;28;19916;-76
2022/01/16 00:54:25;;;;;;;;;;;;;;;0.10;100.00;102435.19;5107428;28;19916;-76
2022/01/16 00:56:50;;;;;;;;;;;;;;;0.06;100.00;102416.34;5104181;28;19924;-77
2022/01/16 00:59:16;;;;;;;;;;;;;;;0.07;100.00;102384.34;5091948;28;19951;-77
2022/01/16 01:01:41;;;;;;;;;;;;;;;0.03;100.00;102392.38;5091944;28;19923;-77
2022/01/16 01:04:08;;;;;;;;;;;;;;;0.05;100.00;102384.19;5091547;28;20386;-77
2022/01/16 01:06:33;;;;;;;;;;;;;;;0.07;100.00;102400.41;5076704;28;19920;-77
2022/01/16 01:08:58;;;;;;;;;;;;;;;0.09;100.00;102390.44;5094620;28;19931;-76
2022/01/16 01:11:27;;;;;;;;;;;;;;;0.10;100.00;102405.75;5106186;28;19923;-76
2022/01/16 01:16:38;;;;;;;;;;;;;;;0.14;100.00;102404.41;5101676;28;19972;-76
2022/01/16 01:19:03;;;;;;;;;;;;;;;0.09;100.00;102391.31;5102513;28;19928;-76
2022/01/16 01:21:29;;;;;;;;;;;;;;;0.12;100.00;102395.75;5104712;28;19953;-77
2022/01/16 01:23:55;;;;;;;;;;;;;;;0.12;100.00;102386.56;5107149;28;19935;-77
2022/01/16 01:26:27;;;;;;;;;;;;;;;0.14;100.00;102387.59;5106186;28;19927;-77
2022/01/16 01:28:53;;;;;;;;;;;;;;;0.13;100.00;102398.47;5093022;28;19945;-77
2022/01/16 01:31:18;;;;;;;;;;;;;;;0.13;100.00;102407.69;5102391;28;19989;-77
2022/01/16 01:33:43;;;;;;;;;;;;;;;0.14;100.00;102400.22;5091350;28;19931;-77
2022/01/16 01:36:08;;;;;;;;;;;;;;;0.19;100.00;102372.84;5105858;28;20312;-76
2022/01/16 01:38:34;;;;;;;;;;;;;;;0.17;100.00;102338.91;5092168;28;19932;-76
2022/01/16 01:41:00;;;;;;;;;;;;;;;0.13;100.00;102325.09;5105602;28;19920;-77
2022/01/16 01:51:32;;;;;;;;;;;;;;;0.12;100.00;102350.22;5104863;28;19934;-76
2022/01/16 01:53:58;;;;;;;;;;;;;;;0.17;100.00;102361.66;5103914;28;19919;-76
2022/01/16 01:56:24;;;;;;;;;;;;;;;0.13;100.00;102369.75;5104424;28;19916;-76
2022/01/16 01:58:50;;;;;;;;;;;;;;;0.12;100.00;102389.09;5103393;28;20002;-76
2022/01/16 02:01:16;;;;;;;;;;;;;;;0.15;100.00;102385.94;5104615;28;19915;-76
2022/01/16 02:03:42;;;;;;;;;;;;;;;0.16;100.00;102391.13;5092189;28;19927;-75
2022/01/16 02:06:21;;;;;;;;;;;;;;;0.19;100.00;102391.44;5074463;28;20292;-76
2022/01/16 02:08:48;;;;;;;;;;;;;;;0.20;100.00;102404.97;5104226;28;19998;-76
2022/01/16 02:11:15;;;;;;;;;;;;;;;0.23;100.00;102403.59;5097249;28;19923;-77
2022/01/16 02:35:37;;;;;;;;;;;;;;;0.25;100.00;102432.50;5109255;28;19980;-77
2022/01/16 02:38:05;;;;;;;;;;;;;;;0.27;100.00;102427.56;5108016;28;19928;-77
2022/01/16 02:40:30;;;;;;;;;;;;;;;0.35;100.00;102419.06;5098630;28;19919;-77
2022/01/16 02:42:55;;;;;;;;;;;;;;;0.39;100.00;102416.06;5106149;28;19927;-77
2022/01/16 02:45:29;;;;;;;;;;;;;;;0.36;100.00;102412.34;5098460;28;20402;-77
2022/01/16 02:48:00;;;;;;;;;;;;;;;0.42;100.00;102403.69;5078926;28;20398;-77
2022/01/16 02:50:25;;;;;;;;;;;;;;;0.31;100.00;102389.16;5094423;28;20291;-77
2022/01/16 02:52:51;;;;;;;;;;;;;;;0.25;100.00;102383.53;5106184;28;19931;-77
2022/01/16 02:55:19;;;;;;;;;;;;;;;0.28;100.00;102381.28;5109267;28;19938;-77
2022/01/16 02:57:45;;;;;;;;;;;;;;;0.36;100.00;102384.50;5094095;28;20014;-77
2022/01/16 03:00:10;;;;;;;;;;;;;;;0.31;100.00;102378.16;5108965;28;20514;-78
2022/01/16 03:02:36;;;;;;;;;;;;;;;0.18;100.00;102371.97;5097873;28;19920;-76
2022/01/16 03:05:01;;;;;;;;;;;;;;;0.26;100.00;102375.19;5108287;28;19923;-77
2022/01/16 03:07:26;;;;;;;;;;;;;;;0.22;100.00;102368.06;5109218;28;20022;-77
2022/01/16 03:12:40;;;;;;;;;;;;;;;0.24;100.00;102359.88;5110183;27;19968;-77
2022/01/16 03:15:06;;;;;;;;;;;;;;;0.23;100.00;102355.53;5081733;28;20009;-76
2022/01/16 03:17:52;;;;;;;;;;;;;;;0.16;100.00;102360.78;5109593;28;19927;-76
2022/01/16 03:23:01;;;;;;;;;;;;;;;0.17;100.00;102347.38;5108629;28;20047;-77
2022/01/16 03:25:27;;;;;;;;;;;;;;;0.24;100.00;102348.84;5094673;28;20022;-76
2022/01/16 03:27:52;;;;;;;;;;;;;;;0.20;100.00;102341.75;5093124;28;19915;-77
2022/01/16 03:30:17;;;;;;;;;;;;;;;0.18;100.00;102344.13;5108604;28;19977;-77
2022/01/16 03:32:43;;;;;;;;;;;;;;;0.22;100.00;102341.13;5109207;28;19968;-77
2022/01/16 03:35:08;;;;;;;;;;;;;;;0.37;100.00;102338.25;5106931;28;20372;-77
2022/01/16 03:37:33;;;;;;;;;;;;;;;0.27;100.00;102331.44;5099412;28;19964;-76
2022/01/16 03:39:59;;;;;;;;;;;;;;;0.28;100.00;102327.25;5096071;28;19938;-77
2022/01/16 03:42:28;;;;;;;;;;;;;;;0.16;100.00;102320.31;5094841;28;19920;-75
2022/01/16 03:44:53;;;;;;;;;;;;;;;0.14;100.00;102326.88;5094845;28;19978;-75
2022/01/16 03:47:19;;;;;;;;;;;;;;;0.23;100.00;102330.25;5107261;28;20024;-75
2022/01/16 03:49:44;;;;;;;;;;;;;;;0.16;100.00;102329.53;5095193;28;19927;-77
2022/01/16 03:52:09;;;;;;;;;;;;;;;0.19;100.00;102335.78;5107381;28;20037;-76
2022/01/16 03:54:36;;;;;;;;;;;;;;;0.15;100.00;102332.81;5106307;28;19920;-76
2022/01/16 03:57:01;;;;;;;;;;;;;;;0.34;100.00;102336.31;5108493;28;20408;-76
2022/01/16 03:59:26;;;;;;;;;;;;;;;0.29;100.00;102337.50;5109049;28;19924;-76
2022/01/16 04:01:52;;;;;;;;;;;;;;;0.32;100.00;102339.47;5108407;28;19920;-76
2022/01/16 04:04:17;;;;;;;;;;;;;;;0.20;100.00;102346.78;5107808;28;19928;-76
2022/01/16 04:07:01;;;;;;;;;;;;;;;0.28;100.00;102348.38;5095106;28;19926;-78
2022/01/16 04:09:26;;;;;;;;;;;;;;;0.30;100.00;102343.47;5091736;28;20705;-75
2022/01/16 04:11:54;;;;;;;;;;;;;;;0.24;100.00;102341.25;5108784;28;19920;-75
2022/01/16 04:15:31;;;;;;;;;;;;;;;0.29;100.00;102334.09;5102176;28;19916;-76
2022/01/16 04:17:05;;;;;;;;;;;;;;;0.35;100.00;102327.97;5104182;28;19915;-76
2022/01/16 04:19:30;;;;;;;;;;;;;;;0.27;100.00;102331.44;5103692;28;19930;-76
2022/01/16 04:21:56;;;;;;;;;;;;;;;0.25;100.00;102330.41;5098141;28;19919;-76
2022/01/16 04:24:21;;;;;;;;;;;;;;;0.32;100.00;102329.34;5077793;28;19923;-75
2022/01/16 04:26:46;;;;;;;;;;;;;;;0.38;100.00;102325.72;5091530;28;20040;-76
2022/01/16 04:29:11;;;;;;;;;;;;;;;0.40;100.00;102329.28;5092999;28;19920;-76
2022/01/16 04:31:37;;;;;;;;;;;;;;;0.26;100.00;102327.13;5102697;28;20329;-76
2022/01/16 04:34:02;;;;;;;;;;;;;;;0.19;100.00;102327.31;5102543;28;19927;-76
2022/01/16 04:36:27;;;;;;;;;;;;;;;0.32;100.00;102329.34;5103227;28;19931;-76
2022/01/16 04:38:52;;;;;;;;;;;;;;;0.14;100.00;102326.00;5105692;28;19939;-76
2022/01/16 04:44:03;;;;;;;;;;;;;;;0.12;100.00;102317.34;5092525;28;20414;-76
2022/01/16 04:46:29;;;;;;;;;;;;;;;0.11;100.00;102323.16;5090453;28;20318;-76
2022/01/16 04:48:56;;;;;;;;;;;;;;;0.17;100.00;102313.63;5102931;28;19997;-76
2022/01/16 04:51:21;;;;;;;;;;;;;;;0.13;100.00;102309.94;5086304;28;20415;-76
2022/01/16 04:53:46;;;;;;;;;;;;;;;0.13;100.00;102317.50;5106524;28;19953;-76
2022/01/16 04:56:12;;;;;;;;;;;;;;;0.14;100.00;102314.22;5102164;28;19928;-76
2022/01/16 04:58:38;;;;;;;;;;;;;;;0.16;100.00;102315.25;5087407;28;19938;-77
2022/01/16 05:01:04;;;;;;;;;;;;;;;0.20;100.00;102308.84;5102249;28;19927;-77
2022/01/16 05:03:31;;;;;;;;;;;;;;;0.29;100.00;102312.22;5104076;28;19977;-76
2022/01/16 05:05:56;;;;;;;;;;;;;;;0.24;100.00;102308.38;5085952;28;19976;-76
2022/01/16 05:08:22;;;;;;;;;;;;;;;0.34;100.00;102316.06;5100518;28;20348;-76
2022/01/16 05:10:48;;;;;;;;;;;;;;;0.35;100.00;102295.06;5105974;28;19935;-76
2022/01/16 05:18:32;;;;;;;;;;;;;;;0.35;100.00;102302.66;5103977;28;19970;-76
2022/01/16 05:20:57;;;;;;;;;;;;;;;0.43;100.00;102298.31;5069140;28;19970;-76
2022/01/16 05:23:22;;;;;;;;;;;;;;;0.56;100.00;102297.78;5090460;28;19924;-77
2022/01/16 05:25:48;;;;;;;;;;;;;;;0.46;100.00;102291.88;5077315;28;20350;-76
2022/01/16 05:28:13;;;;;;;;;;;;;;;0.52;100.00;102297.50;5101670;28;19916;-76
2022/01/16 05:30:38;;;;;;;;;;;;;;;0.60;100.00;102300.72;5089882;28;19927;-76
2022/01/16 05:33:03;;;;;;;;;;;;;;;0.59;100.00;102295.53;5087231;28;19927;-76
2022/01/16 05:35:29;;;;;;;;;;;;;;;0.53;100.00;102299.28;5086656;28;19964;-76
2022/01/16 05:37:54;;;;;;;;;;;;;;;0.60;100.00;102302.38;5088200;28;19923;-76
2022/01/16 05:40:19;;;;;;;;;;;;;;;0.59;100.00;102296.41;5104646;28;19919;-76
2022/01/16 05:42:44;;;;;;;;;;;;;;;0.55;100.00;102304.50;5102527;28;20456;-76
2022/01/16 05:45:10;;;;;;;;;;;;;;;0.58;100.00;102301.34;5089491;28;19920;-76
2022/01/16 05:47:35;;;;;;;;;;;;;;;0.56;100.00;102310.44;5090108;28;20330;-76
2022/01/16 05:50:00;;;;;;;;;;;;;;;0.61;100.00;102312.66;5092152;28;20361;-76
2022/01/16 05:52:26;;;;;;;;;;;;;;;0.59;100.00;102316.66;5087192;28;20010;-76
2022/01/16 05:54:51;;;;;;;;;;;;;;;0.64;100.00;102307.84;5090920;28;20384;-76
2022/01/16 05:57:16;;;;;;;;;;;;;;;0.65;100.00;102312.16;5103569;28;19924;-77
2022/01/16 05:59:42;;;;;;;;;;;;;;;0.67;100.00;102317.38;5089583;28;19928;-77
2022/01/16 06:02:09;;;;;;;;;;;;;;;0.72;100.00;102309.41;5100707;28;20269;-76
2022/01/16 06:04:34;;;;;;;;;;;;;;;0.66;100.00;102305.44;5088871;28;19924;-76
2022/01/16 06:06:59;;;;;;;;;;;;;;;0.75;100.00;102303.75;5086413;28;19973;-77
2022/01/16 06:09:26;;;;;;;;;;;;;;;0.71;100.00;102306.75;5103764;28;19927;-76
2022/01/16 06:11:53;;;;;;;;;;;;;;;0.72;100.00;102306.00;5102746;28;19923;-76
2022/01/16 06:14:19;;;;;;;;;;;;;;;0.88;100.00;102304.09;5089404;28;20291;-77
2022/01/16 06:16:44;;;;;;;;;;;;;;;0.83;100.00;102304.44;5088080;28;19928;-77
2022/01/16 06:19:09;;;;;;;;;;;;;;;0.84;100.00;102306.22;5092900;28;19919;-77
2022/01/16 06:21:36;;;;;;;;;;;;;;;0.86;100.00;102307.28;5105962;28;20020;-77
2022/01/16 06:24:03;;;;;;;;;;;;;;;0.86;100.00;102309.81;5104956;28;19924;-76
2022/01/16 06:26:30;;;;;;;;;;;;;;;0.94;100.00;102311.38;5104939;28;19922;-76
2022/01/16 06:28:56;;;;;;;;;;;;;;;0.92;100.00;102317.94;5093286;28;20325;-76
2022/01/16 06:31:21;;;;;;;;;;;;;;;0.96;100.00;102315.81;5094733;28;19923;-76
2022/01/16 06:33:46;;;;;;;;;;;;;;;1.02;100.00;102318.88;5092170;28;20014;-77
2022/01/16 06:36:12;;;;;;;;;;;;;;;1.11;100.00;102320.47;5093368;28;19981;-75
2022/01/16 06:38:37;;;;;;;;;;;;;;;1.11;100.00;102333.16;5105500;28;19998;-76
2022/01/16 06:41:03;;;;;;;;;;;;;;;1.21;100.00;102344.22;5105473;28;19920;-76
2022/01/16 06:43:28;;;;;;;;;;;;;;;1.22;100.00;102332.47;5102084;28;19924;-76
2022/01/16 06:45:54;;;;;;;;;;;;;;;1.27;100.00;102341.34;5093274;28;20241;-76
2022/01/16 06:48:19;;;;;;;;;;;;;;;1.25;100.00;102333.59;5087354;28;20569;-77
2022/01/16 06:50:45;;;;;;;;;;;;;;;1.28;100.00;102338.97;5103579;28;19947;-76
2022/01/16 06:53:10;;;;;;;;;;;;;;;1.31;100.00;102341.75;5091941;28;19919;-76
2022/01/16 06:55:35;;;;;;;;;;;;;;;1.32;100.00;102341.00;5109026;27;19923;-77
2022/01/16 06:58:00;;;;;;;;;;;;;;;1.39;100.00;102351.66;5098124;28;19924;-76
2022/01/16 07:00:26;;;;;;;;;;;;;;;1.38;100.00;102350.78;5093797;28;19924;-76
2022/01/16 07:02:51;;;;;;;;;;;;;;;1.48;100.00;102344.91;5109573;28;19959;-76
2022/01/16 07:05:17;;;;;;;;;;;;;;;1.50;100.00;102358.59;5111010;27;19924;-76
2022/01/16 07:07:43;;;;;;;;;;;;;;;1.50;100.00;102354.41;5092171;28;19928;-76
2022/01/16 07:10:08;;;;;;;;;;;;;;;1.50;100.00;102356.94;5096663;28;19931;-76
2022/01/16 07:12:33;;;;;;;;;;;;;;;1.49;100.00;102366.94;5109243;27;19927;-76
2022/01/16 07:14:59;;;;;;;;;;;;;;;1.51;100.00;102368.84;5093862;28;20394;-76
2022/01/16 07:17:24;;;;;;;;;;;;;;;1.59;100.00;102369.56;5109566;28;19934;-76
2022/01/16 07:19:49;;;;;;;;;;;;;;;1.56;100.00;102377.75;5075453;28;19959;-76
2022/01/16 07:22:14;;;;;;;;;;;;;;;1.59;100.00;102390.72;5078245;28;19920;-76
2022/01/16 07:24:40;;;;;;;;;;;;;;;1.61;100.00;102396.81;5091611;28;19919;-77
2022/01/16 07:27:05;;;;;;;;;;;;;;;1.65;100.00;102397.09;5108958;28;20060;-77
2022/01/16 07:29:30;;;;;;;;;;;;;;;1.65;100.00;102404.69;5111050;27;20302;-76
2022/01/16 07:31:56;;;;;;;;;;;;;;;1.67;100.00;102406.59;5094956;28;19927;-76
2022/01/16 07:34:21;;;;;;;;;;;;;;;1.72;100.00;102402.84;5096459;28;19993;-76
2022/01/16 07:36:47;;;;;;;;;;;;;;;1.70;100.00;102411.97;5092235;28;19920;-77
2022/01/16 07:39:12;;;;;;;;;;;;;;;1.76;100.00;102426.78;5096880;28;20022;-77
2022/01/16 07:41:37;;;;;;;;;;;;;;;1.78;100.00;102417.69;5107779;27;20010;-76
2022/01/16 07:44:03;;;;;;;;;;;;;;;1.84;100.00;102415.69;5076340;28;19928;-77
2022/01/16 07:46:28;;;;;;;;;;;;;;;1.87;100.00;102410.88;5078363;28;20022;-77
2022/01/16 07:48:53;;;;;;;;;;;;;;;1.90;100.00;102415.34;5107069;28;20440;-77
2022/01/16 07:51:19;;;;;;;;;;;;;;;1.93;100.00;102420.66;5108943;28;20376;-77
2022/01/16 07:53:44;;;;;;;;;;;;;;;1.91;100.00;102427.28;5093979;28;19926;-78
2022/01/16 07:56:09;;;;;;;;;;;;;;;1.98;100.00;102433.00;5095601;28;20334;-77
2022/01/16 07:58:36;;;;;;;;;;;;;;;1.97;100.00;102443.03;5095977;28;20400;-76
2022/01/16 08:01:01;;;;;;;;;;;;;;;1.98;100.00;102448.22;5108760;27;22054;-76
2022/01/16 08:03:27;;;;;;;;;;;;;;;2.02;100.00;102436.72;5108118;28;19916;-77
2022/01/16 08:05:52;;;;;;;;;;;;;;;2.06;100.00;102451.44;5105002;27;20419;-76
2022/01/16 08:08:17;;;;;;;;;;;;;;;2.07;100.00;102448.16;5106769;27;19919;-76
2022/01/16 08:10:42;;;;;;;;;;;;;;;2.15;100.00;102445.53;5116203;27;19931;-78
2022/01/16 08:13:08;;;;;;;;;;;;;;;2.14;100.00;102442.84;5107907;28;20296;-77
2022/01/16 08:15:33;;;;;;;;;;;;;;;2.24;100.00;102429.28;5095238;28;19920;-78
2022/01/16 08:17:59;;;;;;;;;;;;;;;2.25;100.00;102434.53;5077385;27;19923;-76
2022/01/16 08:20:24;;;;;;;;;;;;;;;2.29;100.00;102438.19;5079851;28;19920;-77
2022/01/16 08:22:49;;;;;;;;;;;;;;;2.25;100.00;102434.53;5080260;27;20683;-76
2022/01/16 08:25:14;;;;;;;;;;;;;;;2.25;100.00;102429.44;5096749;28;19964;-77
2022/01/16 08:27:40;;;;;;;;;;;;;;;2.29;100.00;102433.13;5100160;27;19915;-76
2022/01/16 08:30:05;;;;;;;;;;;;;;;2.29;100.00;102422.97;5097148;28;19924;-75
2022/01/16 08:32:31;;;;;;;;;;;;;;;2.32;100.00;102421.59;5103656;27;19916;-76
2022/01/16 08:34:56;;;;;;;;;;;;;;;2.37;100.00;102429.63;5101009;27;19924;-77
2022/01/16 08:37:21;;;;;;;;;;;;;;;2.38;100.00;102423.78;5102553;28;20490;-76
2022/01/16 08:39:46;;;;;;;;;;;;;;;2.45;100.00;102430.28;5077810;28;19927;-75
2022/01/16 08:42:12;;;;;;;;;;;;;;;2.51;100.00;102426.59;5089679;27;19957;-76
2022/01/16 08:44:38;;;;;;;;;;;;;;;2.48;100.00;102431.41;5087930;28;19926;-76
2022/01/16 08:47:04;;;;;;;;;;;;;;;2.50;100.00;102429.00;5091692;27;20416;-76
2022/01/16 08:49:29;;;;;;;;;;;;;;;2.56;100.00;102430.44;5089577;28;19932;-75
2022/01/16 08:51:55;;;;;;;;;;;;;;;2.57;100.00;102437.28;5091401;28;20082;-75
2022/01/16 08:54:20;;;;;;;;;;;;;;;2.59;100.00;102451.00;5106581;27;20282;-75
2022/01/16 08:56:45;;;;;;;;;;;;;;;2.63;100.00;102452.16;5108125;27;20321;-76
2022/01/16 08:59:11;;;;;;;;;;;;;;;2.65;100.00;102463.31;5087865;28;19924;-76
2022/01/16 09:01:36;;;;;;;;;;;;;;;2.71;100.00;102453.69;5082217;28;19920;-76
2022/01/16 09:04:01;;;;;;;;;;;;;;;2.77;100.00;102466.00;5108843;27;20038;-76
2022/01/16 09:06:27;;;;;;;;;;;;;;;2.75;100.00;102462.47;5104979;28;19979;-76
2022/01/16 09:08:53;;;;;;;;;;;;;;;2.79;100.00;102461.94;5105246;28;19919;-75
2022/01/16 09:11:22;;;;;;;;;;;;;;;2.81;100.00;102462.97;5072038;28;19924;-75
2022/01/16 09:13:47;;;;;;;;;;;;;;;2.89;100.00;102469.59;5087900;28;19935;-75
2022/01/16 09:16:12;;;;;;;;;;;;;;;2.91;100.00;102465.50;5106654;27;20283;-75
2022/01/16 09:18:38;;;;;;;;;;;;;;;2.98;100.00;102462.75;5090536;28;19930;-76
2022/01/16 09:21:03;;;;;;;;;;;;;;;3.13;100.00;102458.94;5083293;28;19959;-75
2022/01/16 09:23:29;;;;;;;;;;;;;;;3.11;100.00;102472.28;5103336;28;19920;-75
2022/01/16 09:25:54;;;;;;;;;;;;;;;3.13;100.00;102473.31;5084863;28;19928;-75
2022/01/16 09:28:19;;;;;;;;;;;;;;;3.20;100.00;102476.47;5102713;27;19923;-74
2022/01/16 09:30:45;;;;;;;;;;;;;;;3.23;100.00;102475.84;5101899;28;19961;-74
2022/01/16 09:33:10;;;;;;;;;;;;;;;3.28;100.00;102482.22;5102003;28;19924;-76
2022/01/16 09:35:36;;;;;;;;;;;;;;;3.31;100.00;102484.13;5101083;28;20381;-73
2022/01/16 09:38:02;;;;;;;;;;;;;;;3.41;100.00;102491.75;5067915;28;20469;-74
2022/01/16 09:40:27;;;;;;;;;;;;;;;3.44;100.00;102490.31;5111937;27;19920;-75
2022/01/16 09:42:52;;;;;;;;;;;;;;;3.54;100.00;102496.19;5100848;28;19923;-75
2022/01/16 09:45:18;;;;;;;;;;;;;;;3.49;100.00;102501.78;5115287;27;19978;-75
2022/01/16 09:47:45;;;;;;;;;;;;;;;3.55;100.00;102503.94;5100771;28;19924;-74
2022/01/16 09:50:11;;;;;;;;;;;;;;;3.61;100.00;102494.28;5100414;28;19924;-74
2022/01/16 09:52:37;;;;;;;;;;;;;;;3.63;100.00;102495.28;5097243;28;20376;-74
2022/01/16 09:55:04;;;;;;;;;;;;;;;3.70;100.00;102501.75;5099723;28;20432;-74
2022/01/16 09:57:29;;;;;;;;;;;;;;;3.74;100.00;102498.69;5103050;27;19946;-74
2022/01/16 09:59:54;;;;;;;;;;;;;;;3.74;100.00;102512.31;5086952;28;19932;-76
2022/01/16 10:02:19;;;;;;;;;;;;;;;3.74;100.00;102519.94;5089655;28;19920;-76
2022/01/16 10:04:45;;;;;;;;;;;;;;;3.80;100.00;102529.72;5089300;28;19935;-76
2022/01/16 10:07:14;;;;;;;;;;;;;;;3.82;100.00;102522.22;5103097;28;19920;-75
2022/01/16 10:09:41;;;;;;;;;;;;;;;3.84;100.00;102526.69;5090509;28;20447;-75
2022/01/16 10:12:15;;;;;;;;;;;;;;;3.80;100.00;102529.72;5107845;28;19993;-75
2022/01/16 10:14:47;;;;;;;;;;;;;;;3.89;100.00;102532.16;5095239;28;19923;-73
2022/01/16 10:17:20;;;;;;;;;;;;;;;3.93;100.00;102529.06;5091115;28;19949;-73
2022/01/16 10:19:46;;;;;;;;;;;;;;;4.03;100.00;102534.16;5108857;28;19915;-73
2022/01/16 10:22:12;;;;;;;;;;;;;;;4.10;100.00;102533.88;5095232;28;19912;-74
2022/01/16 10:24:39;;;;;;;;;;;;;;;4.18;100.00;102548.09;5090420;28;19966;-75
2022/01/16 10:27:07;;;;;;;;;;;;;;;4.22;100.00;102536.53;5105675;28;19924;-75
2022/01/16 10:29:34;;;;;;;;;;;;;;;4.35;100.00;102543.47;5105896;28;20380;-75
2022/01/16 10:32:10;;;;;;;;;;;;;;;4.36;100.00;102529.97;5108698;28;19919;-75
2022/01/16 10:34:35;;;;;;;;;;;;;;;4.51;100.00;102542.28;5110163;27;19915;-75
2022/01/16 10:37:00;;;;;;;;;;;;;;;4.68;100.00;102553.81;5092411;28;20411;-75
2022/01/16 10:39:26;;;;;;;;;;;;;;;4.70;100.00;102552.25;5095389;28;19965;-75
2022/01/16 10:42:09;;;;;;;;;;;;;;;4.78;100.00;102547.75;5112604;28;20563;-75
2022/01/16 10:44:35;;;;;;;;;;;;;;;4.86;100.00;102545.81;5110475;28;19924;-75
2022/01/16 10:47:21;;;;;;;;;;;;;;;4.94;100.00;102548.19;5108738;28;20423;-75
2022/01/16 10:49:57;;;;;;;;;;;;;;;5.07;100.00;102542.38;5103996;28;19924;-75
2022/01/16 10:52:22;;;;;;;;;;;;;;;5.19;100.00;102532.22;5103911;28;19966;-75
2022/01/16 10:54:47;;;;;;;;;;;;;;;5.14;100.00;102544.63;5107972;28;20022;-75
2022/01/16 10:57:20;;;;;;;;;;;;;;;5.11;100.00;102549.50;5094396;28;19916;-76
2022/01/16 10:59:45;;;;;;;;;;;;;;;5.04;100.00;102542.16;5094740;28;19965;-74
2022/01/16 11:02:12;;;;;;;;;;;;;;;5.03;100.00;102541.22;5107451;28;20345;-75
2022/01/16 11:04:37;;;;;;;;;;;;;;;4.98;100.00;102556.97;5094331;28;19915;-75
2022/01/16 11:07:03;;;;;;;;;;;;;;;4.98;100.00;102542.56;5107899;28;19930;-74
2022/01/16 11:09:29;;;;;;;;;;;;;;;4.93;100.00;102550.63;5094306;28;19923;-75
2022/01/16 11:11:59;;;;;;;;;;;;;;;4.91;100.00;102550.47;5093632;28;19916;-75
2022/01/16 11:14:28;;;;;;;;;;;;;;;4.91;100.00;102549.59;5110942;28;19912;-75
2022/01/16 11:16:57;;;;;;;;;;;;;;;4.95;100.00;102551.63;5077610;28;20407;-75
2022/01/16 11:19:24;;;;;;;;;;;;;;;5.00;100.00;102548.66;5091941;28;20010;-75
2022/01/16 11:21:53;;;;;;;;;;;;;;;5.00;100.00;102545.22;5107722;28;19920;-75
2022/01/16 11:24:35;;;;;;;;;;;;;;;4.91;100.00;102553.03;5089855;28;19919;-76
2022/01/16 11:27:01;;;;;;;;;;;;;;;4.94;100.00;102555.84;5109436;28;19984;-75
2022/01/16 11:29:29;;;;;;;;;;;;;;;4.96;100.00;102558.50;5104437;28;20407;-75
2022/01/16 11:31:56;;;;;;;;;;;;;;;4.95;100.00;102561.81;5108462;28;20288;-75
2022/01/16 11:34:21;;;;;;;;;;;;;;;4.97;100.00;102562.81;5109459;28;19976;-76
2022/01/16 11:36:46;;;;;;;;;;;;;;;4.95;100.00;102549.06;5090217;28;20057;-75
2022/01/16 11:39:12;;;;;;;;;;;;;;;4.90;100.00;102555.47;5093311;28;19923;-75
2022/01/16 11:41:50;;;;;;;;;;;;;;;4.91;100.00;102557.25;5091212;28;20025;-75
2022/01/16 11:44:23;;;;;;;;;;;;;;;4.88;100.00;102557.03;5111686;28;19920;-75
2022/01/16 11:46:50;;;;;;;;;;;;;;;4.86;100.00;102554.38;5093044;28;19919;-75
2022/01/16 11:49:19;;;;;;;;;;;;;;;4.90;100.00;102552.91;5108474;28;19927;-75
2022/01/16 11:51:51;;;;;;;;;;;;;;;4.94;100.00;102549.84;5075678;28;20308;-76
2022/01/16 11:54:20;;;;;;;;;;;;;;;4.87;100.00;102551.03;5109104;28;19937;-76
2022/01/16 11:56:45;;;;;;;;;;;;;;;4.89;100.00;102551.16;5110045;27;19919;-76
2022/01/16 11:59:11;;;;;;;;;;;;;;;4.89;100.00;102556.25;5089064;28;19912;-76
2022/01/16 12:01:42;;;;;;;;;;;;;;;4.97;100.00;102547.53;5093113;28;19985;-75
2022/01/16 12:04:27;;;;;;;;;;;;;;;4.93;100.00;102550.63;5111472;28;19932;-75
2022/01/16 12:06:53;;;;;;;;;;;;;;;4.82;100.00;102559.97;5111158;28;19974;-75
2022/01/16 12:12:10;;;;;;;;;;;;;;;4.81;100.00;102548.00;5106461;28;19955;-76
2022/01/16 12:14:52;;;;;;;;;;;;;;;4.87;100.00;102547.59;5092180;28;20287;-75
2022/01/16 12:17:26;;;;;;;;;;;;;;;4.84;100.00;102549.13;5105221;28;19939;-75
2022/01/16 12:19:53;;;;;;;;;;;;;;;4.83;100.00;102557.53;5105533;28;19997;-75
2022/01/16 12:22:19;;;;;;;;;;;;;;;4.88;100.00;102551.91;5092987;28;19927;-75
2022/01/16 12:24:45;;;;;;;;;;;;;;;4.87;100.00;102555.25;5105914;28;19912;-75
2022/01/16 12:27:28;;;;;;;;;;;;;;;4.80;100.00;102552.22;5092670;28;19951;-75
2022/01/16 12:30:12;;;;;;;;;;;;;;;4.87;100.00;102556.13;5092853;28;20025;-74
2022/01/16 12:32:55;;;;;;;;;;;;;;;4.85;100.00;102557.66;5107774;27;20015;-75
2022/01/16 12:35:39;;;;;;;;;;;;;;;4.84;100.00;102558.44;5091307;28;19920;-76
2022/01/16 12:38:05;;;;;;;;;;;;;;;4.87;100.00;102551.03;5090821;28;19916;-76
2022/01/16 12:40:30;;;;;;;;;;;;;;;4.86;100.00;102556.03;5105688;28;19970;-75
2022/01/16 12:42:56;;;;;;;;;;;;;;;4.88;100.00;102549.38;5103788;27;19955;-76
2022/01/16 12:45:21;;;;;;;;;;;;;;;4.87;100.00;102552.69;5090148;28;19965;-77
2022/01/16 12:47:47;;;;;;;;;;;;;;;4.95;100.00;102556.72;5106804;28;19920;-74
2022/01/16 12:50:13;;;;;;;;;;;;;;;4.99;100.00;102548.56;5088424;28;19956;-75
2022/01/16 12:52:48;;;;;;;;;;;;;;;5.02;100.00;102543.69;5103442;28;19965;-75
2022/01/16 12:55:13;;;;;;;;;;;;;;;5.06;100.00;102543.16;5106443;28;19931;-75
2022/01/16 12:57:39;;;;;;;;;;;;;;;5.09;100.00;102543.38;5085515;28;19915;-75
2022/01/16 13:00:11;;;;;;;;;;;;;;;5.24;100.00;102542.00;5090545;28;19961;-75
2022/01/16 13:02:37;;;;;;;;;;;;;;;5.15;100.00;102548.06;5090040;28;19928;-75
2022/01/16 13:05:03;;;;;;;;;;;;;;;5.19;100.00;102540.75;5108979;28;19919;-75
2022/01/16 13:07:28;;;;;;;;;;;;;;;5.34;100.00;102539.41;5088677;28;19920;-75
2022/01/16 13:09:53;;;;;;;;;;;;;;;5.31;100.00;102539.16;5108104;27;20486;-75
2022/01/16 13:12:19;;;;;;;;;;;;;;;5.37;100.00;102524.31;5107976;28;19927;-75
2022/01/16 13:14:44;;;;;;;;;;;;;;;5.39;100.00;102527.84;5092981;28;19924;-75
2022/01/16 13:17:11;;;;;;;;;;;;;;;5.46;100.00;102528.31;5108482;28;19927;-74
2022/01/16 13:19:53;;;;;;;;;;;;;;;5.38;100.00;102528.63;5104096;28;19915;-74
2022/01/16 13:22:21;;;;;;;;;;;;;;;5.39;100.00;102532.94;5106128;28;20329;-75
2022/01/16 13:24:51;;;;;;;;;;;;;;;5.41;100.00;102528.00;5102907;28;19990;-75
2022/01/16 13:27:17;;;;;;;;;;;;;;;5.46;100.00;102530.84;5091613;28;19920;-75